Time;durP1;ratioP1;P1;durP2;ratioP2;P2;SDS_P1;SDS_P2;PMS_P1;PMS_P2;Temp;Humidity;BMP_temperature;BMP_pressure;BME280_temperature;BME280_humidity;BME280_pressure;Samples;Min_cycle;Max_cycle;Signal;HPM_P1;HPM_P2
2022/06/26 00:00:13;;;;;;;3.10;2.10;;;22.00;99.90;;;;;;5112382;28;20463;-59
2022/06/26 00:02:38;;;;;;;5.00;2.50;;;21.90;99.90;;;;;;5117668;28;20026;-60
2022/06/26 00:05:07;;;;;;;3.83;2.15;;;21.90;99.90;;;;;;5116001;28;20036;-58
2022/06/26 00:07:33;;;;;;;4.18;2.25;;;21.90;99.90;;;;;;5117595;28;20043;-60
2022/06/26 00:09:58;;;;;;;4.22;2.25;;;21.80;99.90;;;;;;5118209;28;20027;-60
2022/06/26 00:12:24;;;;;;;3.65;2.08;;;21.80;99.90;;;;;;5118086;28;20027;-57
2022/06/26 00:14:50;;;;;;;2.38;1.65;;;21.70;99.90;;;;;;5117703;28;20110;-59
2022/06/26 00:17:15;;;;;;;2.15;1.83;;;21.60;99.90;;;;;;5117144;28;20333;-59
2022/06/26 00:19:41;;;;;;;3.67;1.95;;;21.40;99.90;;;;;;5117384;28;20027;-56
2022/06/26 00:22:08;;;;;;;2.95;1.92;;;21.20;99.90;;;;;;5117086;28;20028;-58
2022/06/26 00:24:34;;;;;;;7.03;2.03;;;21.10;99.90;;;;;;5116655;28;20027;-59
2022/06/26 00:27:02;;;;;;;2.40;1.70;;;21.00;99.90;;;;;;5117088;28;20103;-59
2022/06/26 00:29:29;;;;;;;4.07;1.33;;;20.90;99.90;;;;;;5116693;28;20024;-58
2022/06/26 00:31:55;;;;;;;2.65;1.20;;;20.80;99.90;;;;;;5116974;28;20107;-57
2022/06/26 00:34:20;;;;;;;2.88;1.42;;;20.80;99.90;;;;;;5116581;28;20489;-59
2022/06/26 00:36:46;;;;;;;2.08;1.20;;;20.80;99.90;;;;;;5116645;28;20488;-59
2022/06/26 00:39:11;;;;;;;2.33;1.00;;;20.70;99.90;;;;;;5115601;28;20445;-60
2022/06/26 00:41:38;;;;;;;1.92;1.38;;;20.70;99.90;;;;;;5117100;28;20058;-59
2022/06/26 00:44:15;;;;;;;3.10;1.20;;;20.70;99.90;;;;;;5116690;28;20051;-59
2022/06/26 00:46:41;;;;;;;1.42;1.10;;;20.70;99.90;;;;;;5117107;28;20095;-57
2022/06/26 00:49:06;;;;;;;1.20;1.10;;;20.70;99.90;;;;;;5117236;28;20486;-59
2022/06/26 00:51:32;;;;;;;1.80;1.30;;;20.70;99.90;;;;;;5116652;28;20384;-60
2022/06/26 00:53:57;;;;;;;2.42;1.00;;;20.70;99.90;;;;;;5115393;28;20414;-58
2022/06/26 00:56:23;;;;;;;2.35;0.95;;;20.80;99.90;;;;;;5116678;28;20438;-58
2022/06/26 00:58:48;;;;;;;1.73;1.00;;;20.80;99.90;;;;;;5116246;28;20392;-57
2022/06/26 01:01:14;;;;;;;2.42;1.17;;;20.80;99.90;;;;;;5116235;28;20468;-59
2022/06/26 01:03:39;;;;;;;3.95;1.25;;;20.70;99.90;;;;;;5116179;28;20050;-58
2022/06/26 01:06:07;;;;;;;1.80;1.10;;;20.60;99.90;;;;;;5114899;28;20407;-59
2022/06/26 01:08:34;;;;;;;2.22;1.20;;;20.60;99.90;;;;;;5114742;28;20395;-59
2022/06/26 01:11:00;;;;;;;1.48;1.15;;;20.50;99.90;;;;;;5115999;28;20019;-60
2022/06/26 01:13:26;;;;;;;2.17;1.10;;;20.50;99.90;;;;;;5115180;28;20033;-59
2022/06/26 01:15:52;;;;;;;1.35;0.80;;;20.40;99.90;;;;;;5114545;28;20030;-59
2022/06/26 01:18:18;;;;;;;2.75;1.02;;;20.40;99.90;;;;;;5116163;28;20107;-58
2022/06/26 01:20:44;;;;;;;4.00;1.10;;;20.30;99.90;;;;;;5115795;28;20383;-58
2022/06/26 01:23:10;;;;;;;2.33;1.67;;;20.30;99.90;;;;;;5116525;28;20023;-59
2022/06/26 01:25:41;;;;;;;1.00;0.90;;;20.40;99.90;;;;;;5115862;28;20039;-59
2022/06/26 01:28:07;;;;;;;1.55;1.08;;;20.30;99.90;;;;;;5114503;28;20016;-58
2022/06/26 01:30:32;;;;;;;2.33;1.00;;;20.30;99.90;;;;;;5114566;28;20019;-59
2022/06/26 01:32:58;;;;;;;1.17;0.90;;;20.20;99.90;;;;;;5114411;28;20073;-59
2022/06/26 01:35:24;;;;;;;2.05;1.08;;;20.30;99.90;;;;;;5115773;28;20031;-60
2022/06/26 01:37:49;;;;;;;4.50;1.08;;;20.20;99.90;;;;;;5116523;28;20023;-60
2022/06/26 01:40:15;;;;;;;4.55;2.17;;;20.00;99.90;;;;;;5114576;28;20079;-59
2022/06/26 01:42:40;;;;;;;2.17;1.20;;;20.10;99.90;;;;;;5115911;28;20057;-56
2022/06/26 01:45:06;;;;;;;1.33;0.90;;;20.20;99.90;;;;;;5115599;28;20043;-55
2022/06/26 01:47:32;;;;;;;3.13;1.00;;;20.00;99.90;;;;;;5115402;28;20031;-59
2022/06/26 01:49:57;;;;;;;3.50;0.95;;;20.00;99.90;;;;;;5114146;28;20081;-59
2022/06/26 01:52:23;;;;;;;1.73;1.00;;;19.90;99.90;;;;;;5115382;28;20470;-59
2022/06/26 01:54:48;;;;;;;2.35;0.90;;;19.90;99.90;;;;;;5114477;28;20447;-53
2022/06/26 01:57:14;;;;;;;2.40;0.98;;;19.90;99.90;;;;;;5115418;28;20480;-56
2022/06/26 01:59:40;;;;;;;2.35;0.90;;;19.90;99.90;;;;;;5115469;28;20028;-57
2022/06/26 02:02:05;;;;;;;2.95;1.00;;;20.00;99.90;;;;;;5120282;28;20517;-59
2022/06/26 02:04:31;;;;;;;2.67;1.30;;;20.00;99.90;;;;;;5121689;28;20035;-54
2022/06/26 02:06:56;;;;;;;2.47;1.00;;;20.00;99.90;;;;;;5115475;28;20112;-54
2022/06/26 02:14:51;;;;;;;2.83;0.93;;;19.90;99.90;;;;;;5114894;28;20042;-57
2022/06/26 02:17:16;;;;;;;1.63;1.10;;;19.90;99.90;;;;;;5114996;28;20395;-53
2022/06/26 02:19:42;;;;;;;1.17;0.90;;;19.90;99.90;;;;;;5115314;28;20387;-57
2022/06/26 02:22:07;;;;;;;1.75;1.23;;;20.10;99.90;;;;;;5115277;28;20026;-56
2022/06/26 02:24:33;;;;;;;1.65;1.13;;;20.10;99.90;;;;;;5114700;28;20032;-57
2022/06/26 02:26:58;;;;;;;1.63;0.90;;;20.20;99.90;;;;;;5114919;28;20024;-55
2022/06/26 02:29:24;;;;;;;1.55;1.10;;;20.20;99.90;;;;;;5115327;28;20106;-56
2022/06/26 02:31:49;;;;;;;1.27;1.13;;;20.10;99.90;;;;;;5115405;28;20035;-57
2022/06/26 02:34:15;;;;;;;2.63;1.10;;;20.10;99.90;;;;;;5116363;28;20067;-57
2022/06/26 02:36:41;;;;;;;1.20;0.90;;;20.00;99.90;;;;;;5116803;28;20020;-58
2022/06/26 02:39:06;;;;;;;1.02;0.80;;;20.00;99.90;;;;;;5116728;28;20028;-57
2022/06/26 02:41:32;;;;;;;1.40;0.90;;;19.90;99.90;;;;;;5114796;28;20068;-56
2022/06/26 02:43:57;;;;;;;0.88;0.60;;;20.00;99.90;;;;;;5114707;28;20032;-55
2022/06/26 02:46:23;;;;;;;2.15;1.23;;;20.20;99.90;;;;;;5114360;28;20105;-54
2022/06/26 02:48:48;;;;;;;2.25;0.90;;;20.30;99.90;;;;;;5114526;28;20472;-57
2022/06/26 02:51:14;;;;;;;1.58;1.02;;;20.20;99.90;;;;;;5114692;28;20032;-58
2022/06/26 02:53:39;;;;;;;1.88;0.80;;;20.10;99.90;;;;;;5114430;28;20027;-58
2022/06/26 02:56:05;;;;;;;2.08;0.90;;;20.00;99.90;;;;;;5114124;28;20036;-54
2022/06/26 02:58:30;;;;;;;2.38;0.80;;;20.00;99.90;;;;;;5114501;28;20039;-55
2022/06/26 03:00:56;;;;;;;1.38;0.85;;;19.90;99.90;;;;;;5112951;28;20019;-54
2022/06/26 03:03:22;;;;;;;1.98;1.00;;;19.90;99.90;;;;;;5114295;28;20084;-55
2022/06/26 03:05:47;;;;;;;2.92;1.00;;;19.80;99.90;;;;;;5114101;28;20468;-57
2022/06/26 03:08:13;;;;;;;2.15;0.80;;;19.80;99.90;;;;;;5114099;28;20036;-56
2022/06/26 03:10:38;;;;;;;3.20;1.00;;;19.70;99.90;;;;;;5114045;28;20050;-56
2022/06/26 03:13:04;;;;;;;1.63;0.90;;;19.70;99.90;;;;;;5114149;28;20027;-59
2022/06/26 03:15:29;;;;;;;1.75;1.00;;;19.70;99.90;;;;;;5114399;28;20030;-57
2022/06/26 03:17:55;;;;;;;2.28;1.05;;;19.60;99.90;;;;;;5113986;28;20031;-56
2022/06/26 03:20:20;;;;;;;3.25;1.25;;;19.70;99.90;;;;;;5113960;28;20143;-55
2022/06/26 03:22:47;;;;;;;2.45;1.33;;;19.60;99.90;;;;;;5114114;28;20024;-55
2022/06/26 03:25:12;;;;;;;1.05;0.88;;;19.50;99.90;;;;;;5113998;28;20148;-57
2022/06/26 03:27:38;;;;;;;1.45;0.88;;;19.50;99.90;;;;;;5112896;28;20055;-57
2022/06/26 03:30:06;;;;;;;2.20;1.10;;;19.50;99.90;;;;;;5114286;28;20102;-53
2022/06/26 03:32:31;;;;;;;1.27;1.00;;;19.50;99.90;;;;;;5114484;28;20030;-52
2022/06/26 03:34:57;;;;;;;2.20;1.30;;;19.40;99.90;;;;;;5114371;28;20024;-57
2022/06/26 03:37:22;;;;;;;2.53;1.00;;;19.40;99.90;;;;;;5117705;28;20492;-55
2022/06/26 03:39:48;;;;;;;1.70;1.52;;;19.40;99.90;;;;;;5118209;28;20379;-56
2022/06/26 03:42:13;;;;;;;2.30;0.98;;;19.40;99.90;;;;;;5118149;28;20024;-57
2022/06/26 03:44:39;;;;;;;1.48;1.10;;;19.30;99.90;;;;;;5118273;28;20391;-58
2022/06/26 03:47:05;;;;;;;2.45;1.13;;;19.30;99.90;;;;;;5118355;28;20038;-54
2022/06/26 03:49:30;;;;;;;2.13;1.27;;;19.30;99.90;;;;;;5117799;28;20024;-56
2022/06/26 03:51:56;;;;;;;1.48;0.88;;;19.30;99.90;;;;;;5118174;28;20468;-56
2022/06/26 03:54:21;;;;;;;1.38;1.02;;;19.30;99.90;;;;;;5118066;28;20035;-58
2022/06/26 03:56:48;;;;;;;3.30;1.08;;;19.30;99.90;;;;;;5118186;28;20034;-57
2022/06/26 03:59:13;;;;;;;;;;;19.20;99.90;;;;;;5119457;28;20132;-54
2022/06/26 04:01:39;;;;;;;1.50;1.00;;;19.30;99.90;;;;;;5118192;28;19943;-58
2022/06/26 04:04:05;;;;;;;1.58;1.00;;;19.20;99.90;;;;;;5117538;28;20024;-57
2022/06/26 04:06:31;;;;;;;2.15;1.33;;;19.30;99.90;;;;;;5117932;28;20040;-57
2022/06/26 04:08:56;;;;;;;1.48;1.00;;;19.30;99.90;;;;;;5117688;28;20029;-57
2022/06/26 04:11:22;;;;;;;1.20;1.10;;;19.30;99.90;;;;;;5116801;28;20024;-56
2022/06/26 04:13:49;;;;;;;2.03;1.25;;;19.50;99.90;;;;;;5118220;28;20024;-56
2022/06/26 04:16:16;;;;;;;2.20;1.33;;;19.60;99.90;;;;;;5117229;28;20464;-56
2022/06/26 04:18:41;;;;;;;1.75;1.05;;;19.70;99.90;;;;;;5117374;28;20059;-57
2022/06/26 04:21:07;;;;;;;1.55;1.20;;;19.70;99.90;;;;;;5117311;28;20055;-57
2022/06/26 04:23:32;;;;;;;3.45;1.50;;;19.60;99.90;;;;;;5117685;28;20102;-55
2022/06/26 04:25:58;;;;;;;2.92;1.42;;;19.60;99.90;;;;;;5117141;28;20024;-57
2022/06/26 04:28:23;;;;;;;2.58;1.27;;;19.60;99.90;;;;;;5118921;28;20036;-57
2022/06/26 04:30:49;;;;;;;1.63;1.25;;;19.50;99.90;;;;;;5122446;28;20031;-55
2022/06/26 04:33:14;;;;;;;1.90;1.10;;;19.40;99.90;;;;;;5117345;28;20035;-54
2022/06/26 04:35:40;;;;;;;2.13;1.23;;;19.30;99.90;;;;;;5117100;28;20016;-56
2022/06/26 04:38:06;;;;;;;1.77;1.20;;;19.30;99.90;;;;;;5117210;28;20023;-57
2022/06/26 04:40:31;;;;;;;2.42;1.35;;;19.50;99.90;;;;;;5117425;28;20027;-57
2022/06/26 04:42:57;;;;;;;2.20;1.30;;;19.50;99.90;;;;;;5116964;28;20066;-58
2022/06/26 04:45:22;;;;;;;2.28;1.30;;;19.40;99.90;;;;;;5116848;28;20144;-56
2022/06/26 04:47:48;;;;;;;2.30;1.00;;;19.30;99.90;;;;;;5116773;28;20374;-57
2022/06/26 04:50:15;;;;;;;1.60;1.40;;;19.30;99.90;;;;;;5116868;28;20023;-55
2022/06/26 04:52:47;;;;;;;1.20;1.10;;;19.20;99.90;;;;;;5115288;28;20036;-56
2022/06/26 04:55:14;;;;;;;3.30;1.40;;;19.20;99.90;;;;;;5115053;28;20038;-56
2022/06/26 04:57:40;;;;;;;2.63;1.38;;;19.20;99.90;;;;;;5116527;28;20043;-56
2022/06/26 05:00:08;;;;;;;1.52;1.20;;;19.20;99.90;;;;;;5116739;28;20023;-58
2022/06/26 05:02:35;;;;;;;3.45;1.70;;;19.20;99.90;;;;;;5116621;28;20372;-58
2022/06/26 05:05:01;;;;;;;1.98;1.40;;;19.20;99.90;;;;;;5116958;28;20023;-58
2022/06/26 05:07:26;;;;;;;3.25;1.50;;;19.30;99.90;;;;;;5117744;28;20031;-60
2022/06/26 05:09:52;;;;;;;3.47;1.40;;;19.40;99.90;;;;;;5117860;28;20101;-54
2022/06/26 05:12:17;;;;;;;3.95;1.27;;;19.40;99.90;;;;;;5117494;28;20525;-57
2022/06/26 05:14:43;;;;;;;3.30;1.50;;;19.40;99.90;;;;;;5116970;28;20028;-57
2022/06/26 05:17:10;;;;;;;1.33;1.23;;;19.40;99.90;;;;;;5116766;28;20065;-64
2022/06/26 05:19:35;;;;;;;2.17;1.10;;;19.40;99.90;;;;;;5116357;28;20077;-62
2022/06/26 05:22:02;;;;;;;1.33;1.20;;;19.50;99.90;;;;;;5116253;28;20032;-63
2022/06/26 05:24:29;;;;;;;2.60;1.15;;;19.50;99.90;;;;;;5117211;28;20028;-62
2022/06/26 05:26:56;;;;;;;3.95;1.30;;;19.60;99.90;;;;;;5116760;28;20033;-63
2022/06/26 05:29:23;;;;;;;1.88;1.20;;;19.60;99.90;;;;;;5116038;28;20031;-61
2022/06/26 05:31:48;;;;;;;2.22;1.10;;;19.70;99.90;;;;;;5115711;28;20027;-61
2022/06/26 05:34:14;;;;;;;3.72;1.10;;;19.70;99.90;;;;;;5116178;28;20099;-62
2022/06/26 05:36:39;;;;;;;1.45;1.20;;;19.80;99.90;;;;;;5116146;28;20111;-62
2022/06/26 05:39:05;;;;;;;1.65;1.05;;;19.80;99.90;;;;;;5115754;28;20019;-62
2022/06/26 05:41:31;;;;;;;2.97;1.00;;;19.80;99.90;;;;;;5115757;28;20031;-62
2022/06/26 05:43:57;;;;;;;2.28;1.10;;;19.80;99.90;;;;;;5115764;28;20027;-62
2022/06/26 05:46:23;;;;;;;1.98;1.20;;;20.00;99.90;;;;;;5115573;28;20034;-61
2022/06/26 05:48:49;;;;;;;3.00;1.30;;;20.00;99.90;;;;;;5116185;28;20033;-64
2022/06/26 05:51:14;;;;;;;3.10;1.05;;;20.00;99.90;;;;;;5115532;28;20102;-62
2022/06/26 05:53:40;;;;;;;1.33;1.00;;;20.00;99.90;;;;;;5115567;28;20023;-63
2022/06/26 05:56:05;;;;;;;4.05;1.45;;;20.10;99.90;;;;;;5113987;28;20028;-63
2022/06/26 05:58:31;;;;;;;1.10;1.00;;;20.20;99.90;;;;;;5115048;28;20019;-61
2022/06/26 06:00:57;;;;;;;1.45;1.05;;;20.30;99.90;;;;;;5115454;28;20034;-60
2022/06/26 06:03:22;;;;;;;2.30;1.10;;;20.40;99.90;;;;;;5115474;28;20026;-63
2022/06/26 06:05:48;;;;;;;1.67;1.08;;;20.50;99.90;;;;;;5115150;28;20033;-63
2022/06/26 06:08:13;;;;;;;2.15;1.02;;;20.50;99.90;;;;;;5115179;28;20028;-62
2022/06/26 06:10:39;;;;;;;1.60;0.90;;;20.50;99.90;;;;;;5115102;28;20111;-63
2022/06/26 06:13:04;;;;;;;1.38;1.02;;;20.50;99.90;;;;;;5114928;28;20030;-61
2022/06/26 06:15:30;;;;;;;2.17;1.00;;;20.60;99.90;;;;;;5115557;28;20024;-61
2022/06/26 06:17:56;;;;;;;1.90;1.08;;;20.60;99.90;;;;;;5115156;28;20098;-62
2022/06/26 06:20:24;;;;;;;2.97;1.20;;;20.70;99.90;;;;;;5115024;28;20395;-63
2022/06/26 06:22:53;;;;;;;3.65;1.48;;;20.70;99.90;;;;;;5114848;28;20023;-62
2022/06/26 06:25:20;;;;;;;1.10;1.00;;;20.70;99.90;;;;;;5114065;28;20031;-62
2022/06/26 06:27:47;;;;;;;1.88;0.98;;;20.80;99.90;;;;;;5115141;28;20030;-61
2022/06/26 06:30:13;;;;;;;;;;;20.90;99.90;;;;;;5114016;28;20337;-62
2022/06/26 06:32:40;;;;;;;1.40;1.02;;;20.90;99.90;;;;;;5114870;28;19903;-63
2022/06/26 06:35:07;;;;;;;3.15;1.10;;;20.90;99.90;;;;;;5113187;28;20024;-60
2022/06/26 06:37:33;;;;;;;2.35;1.00;;;21.00;99.90;;;;;;5114629;28;20063;-61
2022/06/26 06:39:59;;;;;;;1.17;1.08;;;21.10;99.90;;;;;;5114552;28;20024;-63
2022/06/26 06:42:25;;;;;;;3.47;1.42;;;21.20;99.90;;;;;;5114741;28;20464;-63
2022/06/26 06:44:51;;;;;;;1.80;1.20;;;21.30;99.90;;;;;;5114578;28;20202;-62
2022/06/26 06:47:16;;;;;;;1.23;1.08;;;21.20;99.90;;;;;;5114894;28;20131;-59
2022/06/26 06:49:42;;;;;;;3.17;1.25;;;21.20;99.90;;;;;;5112992;28;20553;-58
2022/06/26 06:52:08;;;;;;;1.77;1.60;;;21.10;99.90;;;;;;5113440;28;20030;-58
2022/06/26 06:54:34;;;;;;;3.00;1.50;;;21.20;99.90;;;;;;5114254;28;20027;-62
2022/06/26 06:57:00;;;;;;;2.65;1.67;;;21.20;99.90;;;;;;5120934;28;20073;-62
2022/06/26 06:59:26;;;;;;;;;;;21.30;99.90;;;;;;5117762;28;20066;-62
2022/06/26 07:01:52;;;;;;;4.28;1.52;;;21.30;99.90;;;;;;5115606;28;19908;-63
2022/06/26 07:04:18;;;;;;;2.15;1.30;;;21.30;99.90;;;;;;5114931;28;20081;-61
2022/06/26 07:06:44;;;;;;;2.55;0.95;;;21.20;99.90;;;;;;5115120;28;20122;-61
2022/06/26 07:09:10;;;;;;;;;;;21.30;99.90;;;;;;5116191;28;20024;-60
2022/06/26 07:11:35;;;;;;;3.90;1.30;;;21.30;99.90;;;;;;5113757;28;19979;-59
2022/06/26 07:14:01;;;;;;;2.17;1.35;;;21.30;99.90;;;;;;5114488;28;20043;-58
2022/06/26 07:16:27;;;;;;;4.50;1.10;;;21.40;99.90;;;;;;5114386;28;20027;-57
2022/06/26 07:18:53;;;;;;;1.40;1.15;;;21.40;99.90;;;;;;5114520;28;20384;-63
2022/06/26 07:21:18;;;;;;;1.88;1.10;;;21.60;99.90;;;;;;5114004;28;20028;-65
2022/06/26 07:23:44;;;;;;;1.25;1.10;;;21.70;99.90;;;;;;5114048;28;20160;-63
2022/06/26 07:26:10;;;;;;;1.85;1.20;;;21.80;99.90;;;;;;5114076;28;20518;-64
2022/06/26 07:28:36;;;;;;;1.02;0.90;;;21.90;99.90;;;;;;5114632;28;20095;-60
2022/06/26 07:31:01;;;;;;;2.05;1.10;;;21.80;99.90;;;;;;5114021;28;20112;-62
2022/06/26 07:36:11;;;;;;;3.97;1.30;;;21.90;99.90;;;;;;5114249;28;20494;-61
2022/06/26 07:38:36;;;;;;;1.70;1.15;;;21.90;99.90;;;;;;5113955;28;20020;-62
2022/06/26 07:41:02;;;;;;;5.18;1.10;;;22.10;99.90;;;;;;5114146;28;20019;-62
2022/06/26 07:43:28;;;;;;;1.35;1.10;;;22.30;99.90;;;;;;5114259;28;20063;-64
2022/06/26 07:45:53;;;;;;;;;;;22.40;99.90;;;;;;5114250;28;20073;-62
2022/06/26 07:48:19;;;;;;;1.63;1.20;;;23.40;99.90;;;;;;5114098;28;19904;-64
2022/06/26 07:50:44;;;;;;;;;;;25.10;99.90;;;;;;5114128;28;20019;-63
2022/06/26 07:53:10;;;;;;;1.25;1.00;;;26.80;99.90;;;;;;5113613;28;20387;-63
2022/06/26 07:55:36;;;;;;;1.10;1.00;;;28.20;99.00;;;;;;5129341;22;20071;-66
2022/06/26 07:58:01;;;;;;;1.75;0.80;;;29.00;96.20;;;;;;5095474;28;20043;-66
2022/06/26 08:00:27;;;;;;;3.00;1.23;;;29.00;95.90;;;;;;5094822;28;20024;-65
2022/06/26 08:02:52;;;;;;;2.03;0.90;;;28.60;95.30;;;;;;5094706;28;20024;-64
2022/06/26 08:05:18;;;;;;;5.28;0.90;;;27.90;96.00;;;;;;5093489;28;20024;-63
2022/06/26 08:07:44;;;;;;;3.53;1.10;;;27.70;97.00;;;;;;5094015;28;20166;-65
2022/06/26 08:10:10;;;;;;;1.88;0.80;;;28.50;96.10;;;;;;5093871;28;20028;-64
2022/06/26 08:12:36;;;;;;;1.65;0.80;;;30.50;94.30;;;;;;5093879;28;20178;-64
2022/06/26 08:15:03;;;;;;;1.73;0.90;;;32.00;91.80;;;;;;5093375;28;20107;-64
2022/06/26 08:17:28;;;;;;;1.98;1.10;;;33.30;89.50;;;;;;5075113;28;20051;-64
2022/06/26 08:19:54;;;;;;;2.15;1.10;;;34.10;85.80;;;;;;5093289;28;20480;-64
2022/06/26 08:22:19;;;;;;;1.50;1.02;;;33.90;83.30;;;;;;5076456;28;20581;-64
2022/06/26 08:24:45;;;;;;;2.08;1.00;;;32.80;84.00;;;;;;5078423;28;20089;-64
2022/06/26 08:27:11;;;;;;;1.25;0.82;;;32.70;83.90;;;;;;5096915;28;20107;-65
2022/06/26 08:29:38;;;;;;;3.00;1.67;;;33.30;82.90;;;;;;5096632;28;20058;-59
2022/06/26 08:32:04;;;;;;;1.58;0.90;;;34.40;80.70;;;;;;5097088;28;20024;-63
2022/06/26 08:34:31;;;;;;;1.52;0.80;;;34.60;77.90;;;;;;5078653;28;20310;-62
2022/06/26 08:36:57;;;;;;;2.83;0.80;;;34.80;77.90;;;;;;5096409;28;20387;-65
2022/06/26 08:39:24;;;;;;;1.95;1.10;;;34.80;77.50;;;;;;5096240;28;20099;-65
2022/06/26 08:41:52;;;;;;;1.48;0.82;;;35.70;75.30;;;;;;5096379;28;20016;-65
2022/06/26 08:44:17;;;;;;;1.98;0.80;;;36.00;73.50;;;;;;5096115;28;20028;-65
2022/06/26 08:46:44;;;;;;;0.90;0.70;;;36.40;72.10;;;;;;5096158;28;20152;-65
2022/06/26 08:49:19;;;;;;;1.98;0.90;;;37.60;69.90;;;;;;5096155;28;20025;-66
2022/06/26 08:51:46;;;;;;;1.63;0.70;;;38.10;67.40;;;;;;5096163;28;20027;-65
2022/06/26 08:54:14;;;;;;;2.05;0.90;;;38.90;65.90;;;;;;5096025;28;20024;-66
2022/06/26 08:56:42;;;;;;;0.93;0.88;;;40.00;64.10;;;;;;5096818;28;20024;-65
2022/06/26 08:59:13;;;;;;;1.92;0.90;;;39.90;61.90;;;;;;5097352;28;20070;-66
2022/06/26 09:01:40;;;;;;;1.08;0.90;;;40.00;60.90;;;;;;5095946;28;20032;-65
2022/06/26 09:04:07;;;;;;;1.70;1.10;;;37.60;63.30;;;;;;5096094;28;20119;-65
2022/06/26 09:06:33;;;;;;;4.60;0.98;;;36.50;65.20;;;;;;5078568;28;20035;-65
2022/06/26 09:08:59;;;;;;;2.70;1.10;;;35.90;66.70;;;;;;5097128;28;20028;-64
2022/06/26 09:11:24;;;;;;;3.70;1.00;;;35.00;67.50;;;;;;5079593;28;20035;-66
2022/06/26 09:13:53;;;;;;;1.45;0.88;;;35.00;68.10;;;;;;5095756;28;20054;-66
2022/06/26 09:16:31;;;;;;;0.90;0.90;;;35.10;68.00;;;;;;5096115;28;20060;-67
2022/06/26 09:19:10;;;;;;;3.17;1.15;;;35.40;67.40;;;;;;5077705;28;20047;-67
2022/06/26 09:21:35;;;;;;;2.55;0.80;;;35.50;67.00;;;;;;5077632;28;20024;-67
2022/06/26 09:24:01;;;;;;;1.55;1.10;;;35.30;66.60;;;;;;5096370;28;20055;-66
2022/06/26 09:26:27;;;;;;;0.80;0.60;;;34.90;67.20;;;;;;5095871;28;20056;-67
2022/06/26 09:28:53;;;;;;;2.13;1.00;;;34.20;67.80;;;;;;5078058;28;20031;-67
2022/06/26 09:31:20;;;;;;;1.20;0.93;;;34.20;68.20;;;;;;5095795;28;20039;-67
2022/06/26 09:33:46;;;;;;;1.70;1.00;;;34.10;67.70;;;;;;5094783;28;20031;-67
2022/06/26 09:36:18;;;;;;;2.08;0.73;;;33.90;68.00;;;;;;5077253;28;20024;-67
2022/06/26 09:38:51;;;;;;;2.08;1.05;;;33.80;68.70;;;;;;5077001;28;20024;-66
2022/06/26 09:41:29;;;;;;;1.00;0.77;;;33.20;68.80;;;;;;5095177;28;20050;-67
2022/06/26 09:43:55;;;;;;;1.15;1.05;;;32.60;71.00;;;;;;5095488;28;20101;-67
2022/06/26 09:46:29;;;;;;;1.10;0.93;;;32.60;71.10;;;;;;5095756;28;20024;-66
2022/06/26 09:48:57;;;;;;;2.10;1.23;;;32.30;71.20;;;;;;5095516;28;20024;-65
2022/06/26 09:51:23;;;;;;;1.67;1.02;;;31.80;72.60;;;;;;5077223;28;20035;-66
2022/06/26 09:53:49;;;;;;;3.03;0.88;;;31.60;73.10;;;;;;5094915;28;20077;-66
2022/06/26 09:56:14;;;;;;;1.83;1.13;;;31.20;74.00;;;;;;5076352;28;20028;-68
2022/06/26 09:58:40;;;;;;;1.73;1.00;;;30.90;74.10;;;;;;5094772;28;20027;-65
2022/06/26 10:06:35;;;;;;;3.08;1.67;;;29.20;78.90;;;;;;5095111;28;20557;-68
2022/06/26 10:09:04;;;;;;;1.50;0.90;;;28.80;79.70;;;;;;5094759;28;20028;-65
2022/06/26 10:11:32;;;;;;;2.17;0.90;;;28.50;80.50;;;;;;5094969;28;20023;-67
2022/06/26 10:14:08;;;;;;;2.35;0.82;;;28.20;81.50;;;;;;5094249;28;20383;-66
2022/06/26 10:17:03;;;;;;;1.80;0.82;;;27.90;82.10;;;;;;5076202;28;20092;-66
2022/06/26 10:19:42;;;;;;;2.42;1.20;;;27.70;83.10;;;;;;5076740;28;20028;-66
2022/06/26 10:22:08;;;;;;;1.67;0.90;;;27.60;84.40;;;;;;5075839;28;20024;-66
2022/06/26 10:24:34;;;;;;;1.13;1.00;;;27.50;84.60;;;;;;5094004;28;20450;-66
2022/06/26 10:27:03;;;;;;;1.55;0.80;;;27.50;84.80;;;;;;5094178;28;20031;-67
2022/06/26 10:29:36;;;;;;;1.23;1.13;;;27.70;84.70;;;;;;5093892;28;20023;-66
2022/06/26 10:32:03;;;;;;;2.05;1.50;;;27.90;84.30;;;;;;5094165;28;20028;-66
2022/06/26 10:34:28;;;;;;;2.65;1.10;;;27.80;84.70;;;;;;5076903;28;20024;-67
2022/06/26 10:37:04;;;;;;;2.67;1.00;;;27.80;84.70;;;;;;5076386;28;20027;-68
2022/06/26 10:39:38;;;;;;;2.15;1.65;;;27.90;84.40;;;;;;5076186;28;20023;-69
2022/06/26 10:45:14;;;;;;;1.92;1.30;;;27.60;85.70;;;;;;5094482;28;20035;-70
2022/06/26 10:47:47;;;;;;;1.50;1.10;;;27.70;86.30;;;;;;5075751;28;20062;-69
2022/06/26 10:50:38;;;;;;;2.50;1.00;;;27.90;86.00;;;;;;5093598;28;20024;-69
2022/06/26 10:53:24;;;;;;;3.08;0.93;;;27.80;86.10;;;;;;5093688;28;20027;-69
2022/06/26 10:55:51;;;;;;;1.58;1.00;;;27.90;87.30;;;;;;5075081;28;20039;-69
2022/06/26 10:58:24;;;;;;;1.17;1.00;;;27.90;87.00;;;;;;5093784;28;20027;-69
2022/06/26 11:00:52;;;;;;;3.25;0.98;;;28.30;86.70;;;;;;5075405;28;20020;-65
2022/06/26 11:03:19;;;;;;;1.10;0.90;;;28.60;85.20;;;;;;5075582;28;20024;-67
2022/06/26 11:06:00;;;;;;;2.38;1.00;;;28.60;85.80;;;;;;5094093;28;20020;-68
2022/06/26 11:08:38;;;;;;;3.22;1.33;;;29.00;85.20;;;;;;5077544;28;20016;-67
2022/06/26 11:11:14;;;;;;;1.50;0.88;;;29.30;83.30;;;;;;5094821;28;20020;-68
2022/06/26 11:13:49;;;;;;;;;;;28.90;83.50;;;;;;5076572;28;20410;-68
2022/06/26 11:16:14;;;;;;;1.58;1.20;;;28.60;85.10;;;;;;5093692;28;19907;-67
2022/06/26 11:18:40;;;;;;;1.60;1.05;;;28.10;86.20;;;;;;5093285;28;20415;-67
2022/06/26 11:21:06;;;;;;;1.80;1.20;;;27.90;86.40;;;;;;5093632;28;20024;-67
2022/06/26 11:23:35;;;;;;;2.38;1.10;;;27.70;86.80;;;;;;5075255;28;20099;-67
2022/06/26 11:26:06;;;;;;;2.00;1.00;;;27.70;87.30;;;;;;5093617;28;20027;-67
2022/06/26 11:28:40;;;;;;;1.20;1.00;;;27.60;86.60;;;;;;5075595;28;20027;-66
2022/06/26 11:31:10;;;;;;;1.83;1.23;;;27.50;87.50;;;;;;5095413;28;20029;-66
2022/06/26 11:33:37;;;;;;;1.40;1.10;;;27.40;88.30;;;;;;5075303;28;20055;-67
2022/06/26 11:36:08;;;;;;;1.30;1.02;;;27.30;88.20;;;;;;5093000;28;20016;-67
2022/06/26 11:38:35;;;;;;;1.30;1.10;;;27.30;89.10;;;;;;5075322;28;20089;-67
2022/06/26 11:41:06;;;;;;;3.95;1.20;;;27.40;89.50;;;;;;5075275;28;20024;-66
2022/06/26 11:43:33;;;;;;;3.63;1.17;;;27.30;89.10;;;;;;5075685;28;20024;-66
2022/06/26 11:46:01;;;;;;;2.75;0.95;;;27.40;89.00;;;;;;5093694;28;20020;-67
2022/06/26 11:48:27;;;;;;;1.30;1.10;;;27.20;89.60;;;;;;5093529;28;20029;-66
2022/06/26 11:50:55;;;;;;;3.10;1.15;;;26.90;90.10;;;;;;5093813;28;20369;-66
2022/06/26 11:53:22;;;;;;;3.47;1.02;;;26.80;90.50;;;;;;5075354;28;20491;-67
2022/06/26 11:55:51;;;;;;;2.88;1.33;;;26.80;90.40;;;;;;5093350;28;20058;-67
2022/06/26 11:58:17;;;;;;;2.63;1.10;;;27.00;90.80;;;;;;5096664;28;20027;-67
2022/06/26 12:00:44;;;;;;;1.35;1.13;;;27.30;90.40;;;;;;5097204;28;20032;-67
2022/06/26 12:03:13;;;;;;;2.33;1.55;;;27.50;89.70;;;;;;5097620;28;20310;-67
2022/06/26 12:05:45;;;;;;;1.52;1.42;;;27.70;88.90;;;;;;5096891;28;20027;-66
2022/06/26 12:08:18;;;;;;;2.08;1.30;;;28.00;88.70;;;;;;5097598;28;20020;-67
2022/06/26 12:10:48;;;;;;;2.45;1.15;;;28.10;88.90;;;;;;5098629;28;20021;-66
2022/06/26 12:13:29;;;;;;;3.50;1.60;;;28.10;88.30;;;;;;5080257;28;20024;-66
2022/06/26 12:16:07;;;;;;;1.55;1.20;;;28.20;89.00;;;;;;5098993;28;20426;-67
2022/06/26 12:18:40;;;;;;;1.63;1.30;;;28.50;87.40;;;;;;5098164;28;20024;-67
2022/06/26 12:21:21;;;;;;;1.27;1.17;;;28.40;86.80;;;;;;5079031;28;20028;-67
2022/06/26 12:23:50;;;;;;;1.70;1.10;;;28.20;87.30;;;;;;5097699;28;20417;-67
2022/06/26 12:26:19;;;;;;;3.50;1.65;;;28.10;87.70;;;;;;5096722;28;20080;-68
2022/06/26 12:28:50;;;;;;;1.20;0.95;;;27.90;87.70;;;;;;5096282;28;20046;-68
2022/06/26 12:31:18;;;;;;;1.40;1.10;;;27.90;87.00;;;;;;5078271;28;20396;-68
2022/06/26 12:33:44;;;;;;;3.13;1.00;;;28.00;86.40;;;;;;5096389;28;20035;-68
2022/06/26 12:36:10;;;;;;;1.05;0.90;;;27.80;85.40;;;;;;5096704;28;20490;-66
2022/06/26 12:38:36;;;;;;;1.58;1.10;;;27.60;85.90;;;;;;5096619;28;20024;-67
2022/06/26 12:41:04;;;;;;;4.72;3.05;;;27.50;86.30;;;;;;5096443;28;20519;-66
2022/06/26 12:43:30;;;;;;;1.48;1.13;;;27.40;85.70;;;;;;5096666;28;20476;-65
2022/06/26 12:45:56;;;;;;;2.10;0.95;;;27.60;86.20;;;;;;5096243;28;20064;-68
2022/06/26 12:48:21;;;;;;;1.30;0.98;;;27.70;84.40;;;;;;5096824;28;20492;-68
2022/06/26 12:50:47;;;;;;;0.95;0.80;;;27.80;85.00;;;;;;5078330;28;20088;-68
2022/06/26 12:53:13;;;;;;;0.90;0.88;;;27.90;83.50;;;;;;5096164;28;20024;-69
2022/06/26 12:55:38;;;;;;;1.90;1.23;;;28.10;83.20;;;;;;5096272;28;20032;-71
2022/06/26 12:58:04;;;;;;;1.40;0.80;;;28.20;83.40;;;;;;5078571;28;20017;-67
2022/06/26 13:00:29;;;;;;;1.58;1.10;;;28.20;83.70;;;;;;5096181;28;20381;-68
2022/06/26 13:02:55;;;;;;;2.15;1.15;;;28.20;83.10;;;;;;5096216;28;20028;-67